Terminal Aerodrome Forecast
Issued by NWS

Home | Current Version | Previous Version | Text Only | Print | Product List | Glossary Off
Versions: 1 2 3 4 5 6 7 8 9 10 11 12 13 14 15 16 17 18 19 20 21 22 23 24 25 26 27 28

799
FTUS43 KLOT 272320
TAFMDW
TAF
KMDW 272320Z 2800/2824 10006KT P6SM FEW050 BKN250
     FM280200 06003KT P6SM SCT250
     FM280900 05003KT 4SM BR FEW060
     FM281100 06004KT P6SM SCT060
     FM281700 06007KT P6SM VCSH SCT030 BKN080 PROB30 2818/2822 4SM
      -TSRA BKN040CB
     FM282300 03009KT P6SM SCT030 BKN080=

USA.gov is the U.S. government's official web portal to all federal, state and local government web resources and services.